Time;durP1;ratioP1;P1;durP2;ratioP2;P2;SDS_P1;SDS_P2;PMS_P1;PMS_P2;Temp;Humidity;BMP_temperature;BMP_pressure;BME280_temperature;BME280_humidity;BME280_pressure;Samples;Min_cycle;Max_cycle;Signal;HPM_P1;HPM_P2
2021/11/16 00:00:49;;;;;;;0.17;0.10;;;;;;;;;;4182925;28;20056;-37
2021/11/16 00:02:51;;;;;;;0.10;0.10;;;;;;;;;;4164542;28;20049;-37
2021/11/16 00:04:52;;;;;;;0.30;0.20;;;;;;;;;;4165496;28;20049;-37
2021/11/16 00:06:53;;;;;;;0.10;0.10;;;;;;;;;;4183151;28;20049;-37
2021/11/16 00:08:55;;;;;;;0.40;0.30;;;;;;;;;;4182444;28;20118;-36
2021/11/16 00:10:56;;;;;;;0.20;0.20;;;;;;;;;;4182810;28;20057;-37
2021/11/16 00:12:58;;;;;;;0.43;0.20;;;;;;;;;;4182641;28;20061;-38
2021/11/16 00:14:59;;;;;;;0.30;0.10;;;;;;;;;;4165274;28;20053;-37
2021/11/16 00:17:00;;;;;;;0.55;0.20;;;;;;;;;;4183009;28;20057;-36
2021/11/16 00:19:03;;;;;;;0.38;0.10;;;;;;;;;;4182878;28;20056;-37
2021/11/16 00:21:07;;;;;;;0.40;0.30;;;;;;;;;;4191105;28;20106;-38
2021/11/16 00:23:20;;;;;;;0.25;0.10;;;;;;;;;;4199056;28;20056;-37
2021/11/16 00:25:31;;;;;;;0.50;0.20;;;;;;;;;;4199248;28;20057;-36
2021/11/16 00:27:33;;;;;;;0.45;0.10;;;;;;;;;;4199336;28;20126;-37
2021/11/16 00:29:35;;;;;;;0.10;0.10;;;;;;;;;;4199019;28;20094;-40
2021/11/16 00:31:37;;;;;;;0.40;0.10;;;;;;;;;;4199229;28;20056;-37
2021/11/16 00:33:38;;;;;;;0.40;0.10;;;;;;;;;;4198898;28;20053;-37
2021/11/16 00:35:39;;;;;;;0.13;0.10;;;;;;;;;;4181473;28;20057;-37
2021/11/16 00:37:41;;;;;;;0.30;0.15;;;;;;;;;;4198430;28;20488;-37
2021/11/16 00:39:42;;;;;;;0.28;0.15;;;;;;;;;;4181251;28;20137;-37
2021/11/16 00:41:44;;;;;;;0.25;0.15;;;;;;;;;;4198966;28;20048;-36
2021/11/16 00:43:45;;;;;;;0.35;0.30;;;;;;;;;;4181144;28;20060;-41
2021/11/16 00:45:47;;;;;;;0.30;0.20;;;;;;;;;;4198999;28;20465;-36
2021/11/16 00:47:48;;;;;;;0.30;0.20;;;;;;;;;;4197563;28;20087;-36
2021/11/16 00:49:53;;;;;;;0.25;0.20;;;;;;;;;;4198998;28;20064;-37
2021/11/16 00:51:54;;;;;;;0.17;0.10;;;;;;;;;;4198527;28;20075;-38
2021/11/16 00:53:55;;;;;;;0.20;0.10;;;;;;;;;;4198518;28;20056;-38
2021/11/16 00:55:57;;;;;;;0.20;0.10;;;;;;;;;;4180996;28;20057;-37
2021/11/16 00:57:58;;;;;;;0.15;0.15;;;;;;;;;;4198291;28;20106;-39
2021/11/16 00:59:59;;;;;;;0.10;0.10;;;;;;;;;;4198719;28;20113;-37
2021/11/16 01:02:00;;;;;;;0.38;0.20;;;;;;;;;;4198848;28;20057;-36
2021/11/16 01:04:02;;;;;;;0.65;0.38;;;;;;;;;;4198512;28;20456;-37
2021/11/16 01:06:03;;;;;;;0.22;0.17;;;;;;;;;;4198542;28;20052;-37
2021/11/16 01:08:04;;;;;;;0.47;0.10;;;;;;;;;;4197622;28;20063;-37
2021/11/16 01:10:12;;;;;;;0.32;0.30;;;;;;;;;;4198370;28;20060;-37
2021/11/16 01:12:14;;;;;;;0.20;0.20;;;;;;;;;;4198678;28;20118;-37
2021/11/16 01:14:15;;;;;;;0.10;0.10;;;;;;;;;;4198341;28;20064;-36
2021/11/16 01:16:17;;;;;;;0.30;0.20;;;;;;;;;;4198342;28;20485;-36
2021/11/16 01:18:20;;;;;;;0.20;0.20;;;;;;;;;;4198465;28;20060;-36
2021/11/16 01:20:22;;;;;;;0.40;0.15;;;;;;;;;;4198209;28;20052;-37
2021/11/16 01:22:24;;;;;;;0.20;0.20;;;;;;;;;;4198324;28;20052;-37
2021/11/16 01:24:27;;;;;;;0.63;0.10;;;;;;;;;;4197801;28;20056;-37
2021/11/16 01:26:28;;;;;;;0.17;0.17;;;;;;;;;;4198427;28;20064;-37
2021/11/16 01:28:29;;;;;;;0.17;0.10;;;;;;;;;;4180239;28;20405;-37
2021/11/16 01:30:32;;;;;;;0.35;0.13;;;;;;;;;;4198126;28;20071;-36
2021/11/16 01:32:40;;;;;;;0.22;0.20;;;;;;;;;;4198258;28;20061;-36
2021/11/16 01:34:46;;;;;;;0.17;0.10;;;;;;;;;;4198121;28;20382;-36
2021/11/16 01:36:47;;;;;;;0.10;0.10;;;;;;;;;;4198165;28;20102;-38
2021/11/16 01:38:50;;;;;;;0.22;0.22;;;;;;;;;;4197416;28;20390;-36
2021/11/16 01:40:52;;;;;;;0.30;0.20;;;;;;;;;;4198083;28;20096;-37
2021/11/16 01:42:53;;;;;;;0.20;0.10;;;;;;;;;;4197797;28;20485;-37
2021/11/16 01:44:54;;;;;;;0.45;0.25;;;;;;;;;;4197911;28;20060;-36
2021/11/16 01:46:56;;;;;;;0.17;0.10;;;;;;;;;;4197871;28;20060;-37
2021/11/16 01:48:57;;;;;;;0.10;0.10;;;;;;;;;;4197689;28;20147;-37
2021/11/16 01:50:59;;;;;;;0.28;0.10;;;;;;;;;;4198057;28;20106;-37
2021/11/16 01:53:00;;;;;;;0.10;0.10;;;;;;;;;;4196963;28;20171;-37
2021/11/16 01:55:03;;;;;;;0.25;0.20;;;;;;;;;;4185768;28;20060;-37
2021/11/16 01:57:05;;;;;;;0.40;0.28;;;;;;;;;;4163430;28;20103;-37
2021/11/16 01:59:07;;;;;;;0.20;0.20;;;;;;;;;;4164813;28;20171;-37
2021/11/16 02:01:08;;;;;;;0.30;0.20;;;;;;;;;;4164568;28;20133;-37
2021/11/16 02:03:11;;;;;;;0.38;0.20;;;;;;;;;;4164713;28;20061;-37
2021/11/16 02:05:12;;;;;;;0.30;0.20;;;;;;;;;;4164709;28;20061;-37
2021/11/16 02:07:13;;;;;;;0.35;0.20;;;;;;;;;;4164508;28;20057;-36
2021/11/16 02:09:16;;;;;;;0.40;0.20;;;;;;;;;;4163996;28;20049;-37
2021/11/16 02:11:17;;;;;;;0.45;0.22;;;;;;;;;;4147145;28;20057;-38
2021/11/16 02:13:20;;;;;;;0.22;0.20;;;;;;;;;;4164652;28;20058;-37
2021/11/16 02:15:21;;;;;;;0.45;0.20;;;;;;;;;;4146908;28;20127;-37
2021/11/16 02:17:22;;;;;;;0.17;0.10;;;;;;;;;;4164690;28;20111;-37
2021/11/16 02:19:24;;;;;;;0.22;0.10;;;;;;;;;;4164162;28;20065;-37
2021/11/16 02:21:25;;;;;;;0.50;0.30;;;;;;;;;;4163867;28;20071;-37
2021/11/16 02:23:26;;;;;;;0.57;0.32;;;;;;;;;;4163839;28;20053;-37
2021/11/16 02:25:27;;;;;;;0.10;0.10;;;;;;;;;;4147007;28;20062;-36
2021/11/16 02:27:28;;;;;;;0.55;0.20;;;;;;;;;;4162955;28;20111;-36
2021/11/16 02:29:30;;;;;;;0.80;0.10;;;;;;;;;;4164272;28;20061;-36
2021/11/16 02:31:31;;;;;;;0.47;0.20;;;;;;;;;;4164150;28;20053;-37
2021/11/16 02:33:33;;;;;;;0.40;0.20;;;;;;;;;;4164265;28;20049;-39
2021/11/16 02:35:34;;;;;;;0.40;0.20;;;;;;;;;;4164395;28;20061;-38
2021/11/16 02:37:35;;;;;;;0.15;0.15;;;;;;;;;;4163560;28;20168;-38
2021/11/16 02:39:36;;;;;;;0.10;0.10;;;;;;;;;;4163987;28;20536;-39
2021/11/16 02:41:39;;;;;;;0.28;0.10;;;;;;;;;;4164322;28;20049;-39
2021/11/16 02:43:41;;;;;;;0.50;0.30;;;;;;;;;;4163899;28;20068;-38
2021/11/16 02:45:42;;;;;;;0.57;0.30;;;;;;;;;;4164295;28;20061;-38
2021/11/16 02:47:44;;;;;;;0.45;0.22;;;;;;;;;;4163846;28;20057;-38
2021/11/16 02:49:47;;;;;;;0.30;0.28;;;;;;;;;;4176168;28;20056;-38
2021/11/16 02:51:48;;;;;;;0.15;0.15;;;;;;;;;;4179192;28;20107;-38
2021/11/16 02:53:50;;;;;;;0.13;0.13;;;;;;;;;;4196494;28;20083;-37
2021/11/16 02:55:51;;;;;;;0.30;0.20;;;;;;;;;;4180102;28;20452;-37
2021/11/16 02:57:52;;;;;;;0.25;0.10;;;;;;;;;;4180063;28;20057;-38
2021/11/16 02:59:54;;;;;;;0.20;0.20;;;;;;;;;;4180289;28;20053;-37
2021/11/16 03:01:55;;;;;;;0.10;0.10;;;;;;;;;;4180368;28;20057;-38
2021/11/16 03:03:56;;;;;;;0.20;0.20;;;;;;;;;;4180183;28;20057;-38
2021/11/16 03:05:57;;;;;;;0.10;0.10;;;;;;;;;;4180555;28;20136;-38
2021/11/16 03:07:58;;;;;;;0.38;0.10;;;;;;;;;;4179585;28;20122;-38
2021/11/16 03:10:00;;;;;;;0.10;0.10;;;;;;;;;;4180396;28;20056;-38
2021/11/16 03:12:01;;;;;;;0.38;0.20;;;;;;;;;;4180500;28;20056;-38
2021/11/16 03:14:03;;;;;;;0.73;0.17;;;;;;;;;;4162441;28;20054;-37
2021/11/16 03:16:10;;;;;;;0.10;0.10;;;;;;;;;;4162629;28;20062;-38
2021/11/16 03:18:12;;;;;;;0.60;0.15;;;;;;;;;;4162642;28;20061;-38
2021/11/16 03:20:15;;;;;;;0.10;0.10;;;;;;;;;;4180187;28;20056;-38
2021/11/16 03:22:17;;;;;;;0.40;0.30;;;;;;;;;;4162482;28;20057;-38
2021/11/16 03:24:18;;;;;;;0.20;0.10;;;;;;;;;;4179786;28;20083;-38
2021/11/16 03:26:21;;;;;;;0.35;0.25;;;;;;;;;;4180152;28;20209;-36
2021/11/16 03:28:24;;;;;;;0.35;0.20;;;;;;;;;;4179898;28;20386;-37
2021/11/16 03:30:25;;;;;;;0.40;0.17;;;;;;;;;;4180302;28;20133;-38
2021/11/16 03:32:34;;;;;;;0.20;0.20;;;;;;;;;;4181515;28;20064;-38
2021/11/16 03:34:35;;;;;;;0.75;0.30;;;;;;;;;;4183573;28;20152;-40
2021/11/16 03:36:36;;;;;;;0.50;0.20;;;;;;;;;;4149400;28;20085;-37
2021/11/16 03:38:40;;;;;;;0.30;0.17;;;;;;;;;;4182524;28;20053;-37
2021/11/16 03:40:41;;;;;;;0.60;0.30;;;;;;;;;;4165662;28;20115;-37
2021/11/16 03:42:47;;;;;;;0.20;0.20;;;;;;;;;;4183235;28;20489;-36
2021/11/16 03:44:48;;;;;;;0.32;0.20;;;;;;;;;;4183276;28;20115;-37
2021/11/16 03:46:49;;;;;;;0.13;0.10;;;;;;;;;;4183531;28;20056;-37
2021/11/16 03:48:50;;;;;;;0.35;0.28;;;;;;;;;;4183128;28;20133;-37
2021/11/16 03:50:52;;;;;;;0.40;0.20;;;;;;;;;;4182977;28;20053;-36
2021/11/16 03:52:56;;;;;;;0.30;0.20;;;;;;;;;;4182512;28;20061;-36
2021/11/16 03:54:57;;;;;;;0.20;0.20;;;;;;;;;;4183047;28;20512;-37
2021/11/16 03:57:01;;;;;;;0.20;0.10;;;;;;;;;;4183055;28;20049;-37
2021/11/16 03:59:03;;;;;;;0.40;0.25;;;;;;;;;;4182928;28;20057;-37
2021/11/16 04:01:06;;;;;;;0.50;0.20;;;;;;;;;;4183443;28;20049;-37
2021/11/16 04:03:08;;;;;;;0.30;0.20;;;;;;;;;;4182962;28;20106;-36
2021/11/16 04:05:10;;;;;;;0.17;0.17;;;;;;;;;;4183041;28;20493;-36
2021/11/16 04:07:11;;;;;;;0.57;0.28;;;;;;;;;;4182463;28;20068;-37
2021/11/16 04:09:12;;;;;;;0.40;0.15;;;;;;;;;;4182437;28;20056;-37
2021/11/16 04:11:13;;;;;;;0.20;0.20;;;;;;;;;;4182778;28;20099;-37
2021/11/16 04:13:15;;;;;;;0.38;0.17;;;;;;;;;;4182740;28;20540;-38
2021/11/16 04:15:17;;;;;;;0.30;0.25;;;;;;;;;;4182528;28;20060;-36
2021/11/16 04:17:18;;;;;;;0.73;0.20;;;;;;;;;;4164846;28;20060;-37
2021/11/16 04:19:20;;;;;;;0.40;0.30;;;;;;;;;;4182624;28;20335;-37
2021/11/16 04:21:21;;;;;;;0.20;0.20;;;;;;;;;;4148535;28;20045;-37
2021/11/16 04:23:24;;;;;;;0.20;0.20;;;;;;;;;;4164544;28;20061;-36
2021/11/16 04:25:27;;;;;;;0.52;0.30;;;;;;;;;;4182438;28;20060;-38
2021/11/16 04:27:28;;;;;;;0.20;0.20;;;;;;;;;;4182727;28;20053;-37
2021/11/16 04:29:29;;;;;;;0.22;0.22;;;;;;;;;;4164986;28;20485;-37
2021/11/16 04:31:30;;;;;;;0.40;0.10;;;;;;;;;;4164941;28;20064;-37
2021/11/16 04:33:31;;;;;;;0.28;0.20;;;;;;;;;;4181695;28;20094;-37
2021/11/16 04:35:33;;;;;;;0.30;0.20;;;;;;;;;;4182338;28;20056;-36
2021/11/16 04:37:35;;;;;;;0.40;0.20;;;;;;;;;;4182146;28;20057;-36
2021/11/16 04:39:36;;;;;;;0.22;0.20;;;;;;;;;;4182411;28;20331;-36
2021/11/16 04:41:38;;;;;;;0.20;0.20;;;;;;;;;;4182627;28;20049;-37
2021/11/16 04:43:39;;;;;;;0.20;0.20;;;;;;;;;;4181915;28;20056;-37
2021/11/16 04:45:41;;;;;;;0.10;0.10;;;;;;;;;;4182370;28;20060;-37
2021/11/16 04:47:51;;;;;;;0.13;0.13;;;;;;;;;;4182130;28;20118;-36
2021/11/16 04:50:00;;;;;;;;;;;;;;;;;;4182716;28;20064;-37
2021/11/16 04:52:12;;;;;;;0.63;0.20;;;;;;;;;;4182065;28;19920;-37
2021/11/16 05:03:26;;;;;;;0.32;0.20;;;;;;;;;;4180954;28;20053;-37
2021/11/16 05:05:27;;;;;;;0.20;0.20;;;;;;;;;;4180892;28;20535;-37
2021/11/16 05:07:31;;;;;;;0.95;0.28;;;;;;;;;;4198863;28;20114;-40
2021/11/16 05:09:32;;;;;;;0.20;0.20;;;;;;;;;;4198873;28;20098;-36
2021/11/16 05:11:33;;;;;;;0.20;0.20;;;;;;;;;;4198534;28;20113;-37
2021/11/16 05:13:35;;;;;;;0.95;0.20;;;;;;;;;;4197259;28;20052;-38
2021/11/16 05:15:40;;;;;;;0.30;0.20;;;;;;;;;;4197351;28;20118;-37
2021/11/16 05:17:47;;;;;;;0.20;0.20;;;;;;;;;;4198521;28;20053;-36
2021/11/16 05:19:48;;;;;;;0.43;0.30;;;;;;;;;;4198250;28;20064;-37
2021/11/16 05:21:50;;;;;;;0.20;0.20;;;;;;;;;;4198402;28;20515;-39
2021/11/16 05:23:53;;;;;;;0.28;0.20;;;;;;;;;;4180104;28;20068;-37
2021/11/16 05:25:55;;;;;;;0.63;0.30;;;;;;;;;;4198425;28;20052;-37
2021/11/16 05:27:56;;;;;;;0.22;0.20;;;;;;;;;;4198325;28;20061;-38
2021/11/16 05:29:57;;;;;;;0.65;0.20;;;;;;;;;;4198290;28;20091;-37
2021/11/16 05:31:58;;;;;;;0.40;0.20;;;;;;;;;;4198520;28;20113;-37
2021/11/16 05:34:00;;;;;;;0.75;0.40;;;;;;;;;;4180332;28;20142;-37
2021/11/16 05:36:01;;;;;;;0.35;0.30;;;;;;;;;;4198204;28;20056;-36
2021/11/16 05:38:03;;;;;;;0.32;0.30;;;;;;;;;;4197644;28;20480;-37
2021/11/16 05:40:04;;;;;;;0.32;0.30;;;;;;;;;;4198011;28;20090;-36
2021/11/16 05:42:06;;;;;;;0.70;0.30;;;;;;;;;;4197941;28;20447;-36
2021/11/16 05:44:07;;;;;;;0.45;0.35;;;;;;;;;;4197383;28;20056;-37
2021/11/16 05:46:09;;;;;;;0.82;0.50;;;;;;;;;;4197980;28;20068;-37
2021/11/16 05:48:10;;;;;;;0.73;0.40;;;;;;;;;;4197504;28;20454;-37
2021/11/16 05:50:13;;;;;;;0.57;0.47;;;;;;;;;;4197958;28;20155;-37
2021/11/16 05:52:14;;;;;;;0.80;0.50;;;;;;;;;;4180231;28;20511;-37
2021/11/16 05:54:20;;;;;;;0.43;0.32;;;;;;;;;;4162518;28;20065;-37
2021/11/16 05:56:23;;;;;;;0.38;0.25;;;;;;;;;;4197432;28;20063;-37
2021/11/16 05:58:24;;;;;;;0.38;0.35;;;;;;;;;;4197881;28;20052;-36
2021/11/16 06:00:26;;;;;;;0.98;0.50;;;;;;;;;;4197680;28;20060;-37
2021/11/16 06:02:27;;;;;;;0.63;0.40;;;;;;;;;;4197510;28;20060;-39
2021/11/16 06:04:29;;;;;;;1.10;0.50;;;;;;;;;;4186235;28;20111;-37
2021/11/16 06:06:31;;;;;;;0.88;0.43;;;;;;;;;;4180919;28;20108;-37
2021/11/16 06:08:32;;;;;;;0.63;0.40;;;;;;;;;;4180521;28;20052;-37
2021/11/16 06:10:34;;;;;;;0.70;0.60;;;;;;;;;;4181693;28;20045;-37
2021/11/16 06:12:36;;;;;;;0.77;0.60;;;;;;;;;;4190643;28;20435;-37
2021/11/16 06:14:37;;;;;;;1.08;0.60;;;;;;;;;;4176425;28;20057;-37
2021/11/16 06:16:38;;;;;;;0.80;0.50;;;;;;;;;;4178219;28;20059;-38
2021/11/16 06:18:41;;;;;;;0.90;0.65;;;;;;;;;;4165760;28;20049;-38
2021/11/16 06:20:43;;;;;;;0.55;0.50;;;;;;;;;;4178931;28;20061;-41
2021/11/16 06:22:45;;;;;;;0.47;0.40;;;;;;;;;;4191618;28;20480;-36
2021/11/16 06:24:47;;;;;;;1.17;0.77;;;;;;;;;;4194218;28;20071;-36
2021/11/16 06:26:48;;;;;;;0.77;0.65;;;;;;;;;;4159082;28;20065;-38
2021/11/16 06:28:50;;;;;;;1.10;0.75;;;;;;;;;;4178044;28;20057;-37
2021/11/16 06:30:51;;;;;;;1.20;0.80;;;;;;;;;;4176064;28;20052;-41
2021/11/16 06:32:52;;;;;;;0.98;0.80;;;;;;;;;;4175302;28;20048;-37
2021/11/16 06:34:54;;;;;;;1.23;0.65;;;;;;;;;;4158158;28;20079;-37
2021/11/16 06:36:55;;;;;;;1.50;0.90;;;;;;;;;;4177329;28;20056;-38
2021/11/16 06:38:57;;;;;;;1.50;0.98;;;;;;;;;;4172063;28;20057;-38
2021/11/16 06:40:58;;;;;;;0.70;0.60;;;;;;;;;;4178555;28;20157;-38
2021/11/16 06:42:59;;;;;;;1.67;0.90;;;;;;;;;;4180131;28;20131;-37
2021/11/16 06:45:00;;;;;;;1.02;0.77;;;;;;;;;;4169434;28;20055;-37
2021/11/16 06:47:02;;;;;;;1.98;0.98;;;;;;;;;;4161626;28;20057;-36
2021/11/16 06:49:06;;;;;;;1.35;1.00;;;;;;;;;;4175884;28;20102;-40
2021/11/16 06:51:09;;;;;;;1.10;0.90;;;;;;;;;;4168132;28;20049;-36
2021/11/16 06:53:10;;;;;;;1.63;0.98;;;;;;;;;;4173525;28;20086;-37
2021/11/16 06:55:12;;;;;;;1.40;0.80;;;;;;;;;;4166263;28;20107;-39
2021/11/16 06:57:13;;;;;;;1.20;0.90;;;;;;;;;;4172803;28;20053;-37
2021/11/16 06:59:23;;;;;;;1.20;0.95;;;;;;;;;;4156792;28;20057;-38
2021/11/16 07:01:24;;;;;;;1.00;0.80;;;;;;;;;;4170310;28;20041;-37
2021/11/16 07:03:25;;;;;;;2.38;0.90;;;;;;;;;;4142658;28;20050;-39
2021/11/16 07:05:28;;;;;;;1.60;1.10;;;;;;;;;;4174662;28;20053;-37
2021/11/16 07:07:29;;;;;;;2.25;0.90;;;;;;;;;;4168126;28;20054;-38
2021/11/16 07:09:48;;;;;;;1.65;1.00;;;;;;;;;;4169659;28;20098;-37
2021/11/16 07:11:52;;;;;;;1.60;1.05;;;;;;;;;;4169352;28;20405;-37
2021/11/16 07:14:01;;;;;;;1.02;0.90;;;;;;;;;;4172034;28;20385;-39
2021/11/16 07:16:11;;;;;;;1.20;1.00;;;;;;;;;;4169652;28;20430;-38
2021/11/16 07:18:12;;;;;;;1.83;1.10;;;;;;;;;;4157708;28;20045;-39
2021/11/16 07:20:13;;;;;;;1.98;1.00;;;;;;;;;;4163782;28;20045;-42
2021/11/16 07:22:18;;;;;;;1.45;0.90;;;;;;;;;;4164092;28;20120;-39
2021/11/16 07:24:26;;;;;;;1.35;1.15;;;;;;;;;;4165755;28;20560;-38
2021/11/16 07:26:27;;;;;;;1.30;1.13;;;;;;;;;;4168635;28;20106;-38
2021/11/16 07:28:30;;;;;;;1.00;0.80;;;;;;;;;;4165720;28;20061;-38
2021/11/16 07:30:33;;;;;;;2.22;1.10;;;;;;;;;;4156814;28;20159;-39
2021/11/16 07:32:43;;;;;;;2.20;1.10;;;;;;;;;;4158448;28;20062;-39
2021/11/16 07:34:45;;;;;;;1.38;1.05;;;;;;;;;;4167488;28;20152;-43
2021/11/16 07:36:58;;;;;;;1.42;1.30;;;;;;;;;;4165483;28;20413;-40
2021/11/16 07:39:04;;;;;;;2.85;1.10;;;;;;;;;;4165249;28;20802;-37
2021/11/16 07:41:05;;;;;;;1.83;1.40;;;;;;;;;;4161919;28;20052;-38
2021/11/16 07:43:12;;;;;;;4.78;1.25;;;;;;;;;;4165205;28;20052;-38
2021/11/16 07:45:19;;;;;;;1.77;1.50;;;;;;;;;;4162789;28;20053;-37
2021/11/16 07:47:20;;;;;;;2.33;1.38;;;;;;;;;;4152300;28;20126;-41
2021/11/16 07:49:22;;;;;;;6.05;1.30;;;;;;;;;;4153930;28;20136;-38
2021/11/16 07:51:24;;;;;;;2.72;1.98;;;;;;;;;;4151151;28;20162;-37
2021/11/16 07:53:32;;;;;;;2.15;1.30;;;;;;;;;;4149700;28;20108;-38
2021/11/16 07:55:33;;;;;;;3.47;1.65;;;;;;;;;;4152723;28;20072;-41
2021/11/16 07:57:44;;;;;;;2.75;1.40;;;;;;;;;;4134868;28;20136;-38
2021/11/16 07:59:45;;;;;;;2.33;1.48;;;;;;;;;;4147029;28;20136;-38
2021/11/16 08:02:09;;;;;;;1.48;1.33;;;;;;;;;;4135440;28;20123;-39
2021/11/16 08:04:40;;;;;;;3.75;1.25;;;;;;;;;;4157149;28;20432;-39
2021/11/16 08:06:39;;;;;;;1.63;1.20;;;;;;;;;;4152971;28;20083;-37
2021/11/16 08:10:54;;;;;;;2.05;1.38;;;;;;;;;;4158593;28;20053;-38
2021/11/16 08:13:04;;;;;;;1.58;1.30;;;;;;;;;;4158359;28;20162;-38
2021/11/16 08:15:11;;;;;;;1.90;1.48;;;;;;;;;;4162014;28;20057;-39
2021/11/16 08:17:13;;;;;;;2.35;1.38;;;;;;;;;;4161962;28;20053;-39
2021/11/16 08:19:18;;;;;;;3.97;1.42;;;;;;;;;;4159363;28;20057;-37
2021/11/16 08:21:19;;;;;;;2.00;1.48;;;;;;;;;;4150545;28;20405;-39
2021/11/16 08:23:20;;;;;;;2.30;1.35;;;;;;;;;;4146385;28;20058;-39
2021/11/16 08:25:22;;;;;;;2.13;1.50;;;;;;;;;;4139927;28;20054;-37
2021/11/16 08:27:27;;;;;;;3.20;1.45;;;;;;;;;;4142273;28;20148;-38
2021/11/16 08:29:34;;;;;;;1.77;1.55;;;;;;;;;;4149189;28;20058;-38
2021/11/16 08:31:46;;;;;;;3.33;1.38;;;;;;;;;;4142931;28;20054;-37
2021/11/16 08:33:51;;;;;;;1.40;1.02;;;;;;;;;;4134056;28;20057;-39
2021/11/16 08:35:52;;;;;;;2.33;1.38;;;;;;;;;;4110072;28;20062;-38
2021/11/16 08:37:57;;;;;;;2.75;1.63;;;;;;;;;;4129221;28;20108;-38
2021/11/16 08:40:01;;;;;;;1.42;1.13;;;;;;;;;;4148565;28;20062;-40
2021/11/16 08:42:16;;;;;;;2.80;1.63;;;;;;;;;;4145491;28;20106;-37
2021/11/16 08:44:26;;;;;;;1.38;1.02;;;;;;;;;;4132962;28;21195;-38
2021/11/16 08:46:30;;;;;;;2.75;1.60;;;;;;;;;;4148282;28;20073;-37
2021/11/16 08:48:35;;;;;;;2.42;1.58;;;;;;;;;;4148483;28;20053;-39
2021/11/16 08:50:42;;;;;;;1.58;1.10;;;;;;;;;;4144145;28;20064;-37
2021/11/16 08:52:43;;;;;;;2.47;1.50;;;;;;;;;;4134138;28;20110;-37
2021/11/16 08:55:00;;;;;;;1.65;1.17;;;;;;;;;;4145959;28;20123;-36
2021/11/16 08:57:04;;;;;;;2.63;1.42;;;;;;;;;;4144694;28;20842;-37
2021/11/16 08:59:11;;;;;;;2.08;1.30;;;;;;;;;;4132414;28;20054;-37
2021/11/16 09:01:14;;;;;;;1.70;1.17;;;;;;;;;;4144806;28;20049;-39
2021/11/16 09:03:19;;;;;;;2.47;1.63;;;;;;;;;;4145801;28;20053;-40
2021/11/16 09:05:20;;;;;;;1.67;1.08;;;;;;;;;;4133512;28;20058;-38
2021/11/16 09:07:31;;;;;;;1.75;1.40;;;;;;;;;;4144237;28;20061;-38
2021/11/16 09:09:32;;;;;;;1.63;1.15;;;;;;;;;;4137299;28;20139;-38
2021/11/16 09:11:33;;;;;;;2.13;1.30;;;;;;;;;;4136535;28;20127;-40
2021/11/16 09:13:35;;;;;;;2.80;1.27;;;;;;;;;;4138619;28;20101;-38
2021/11/16 09:15:45;;;;;;;2.17;1.63;;;;;;;;;;4142474;28;20410;-38
2021/11/16 09:17:47;;;;;;;2.35;1.23;;;;;;;;;;4146012;28;20112;-39
2021/11/16 09:19:48;;;;;;;1.70;1.13;;;;;;;;;;4145560;28;20050;-38
2021/11/16 09:21:50;;;;;;;4.25;1.48;;;;;;;;;;4162217;28;20056;-38
2021/11/16 09:24:00;;;;;;;2.67;1.88;;;;;;;;;;4163174;28;20052;-37
2021/11/16 09:26:18;;;;;;;2.10;1.63;;;;;;;;;;4162707;28;20061;-38
2021/11/16 09:28:37;;;;;;;1.85;1.35;;;;;;;;;;4159869;28;20056;-38
2021/11/16 09:30:42;;;;;;;2.00;1.30;;;;;;;;;;4164746;28;20057;-37
2021/11/16 09:33:06;;;;;;;1.88;1.58;;;;;;;;;;4156740;28;20083;-37
2021/11/16 09:35:07;;;;;;;6.50;1.77;;;;;;;;;;4160399;28;20077;-36
2021/11/16 09:37:19;;;;;;;3.65;1.10;;;;;;;;;;4157970;28;20064;-36
2021/11/16 09:39:28;;;;;;;2.25;1.45;;;;;;;;;;4161452;28;20205;-37
2021/11/16 09:41:41;;;;;;;2.58;1.60;;;;;;;;;;4145249;28;20673;-37
2021/11/16 09:43:43;;;;;;;2.15;1.73;;;;;;;;;;4162982;28;20053;-36
2021/11/16 09:45:45;;;;;;;1.50;1.40;;;;;;;;;;4152738;28;20449;-37
2021/11/16 09:47:46;;;;;;;2.85;1.17;;;;;;;;;;4141044;28;20759;-38
2021/11/16 09:49:55;;;;;;;2.97;1.65;;;;;;;;;;4153504;28;20579;-36
2021/11/16 09:51:59;;;;;;;1.67;1.30;;;;;;;;;;4156327;28;20080;-37
2021/11/16 09:54:06;;;;;;;2.20;1.20;;;;;;;;;;4158533;28;20483;-39
2021/11/16 09:56:21;;;;;;;2.42;1.60;;;;;;;;;;4156699;28;20061;-39
2021/11/16 09:58:24;;;;;;;1.55;1.40;;;;;;;;;;4163695;28;20318;-39
2021/11/16 10:00:38;;;;;;;3.08;1.73;;;;;;;;;;4155574;28;20435;-38
2021/11/16 10:02:43;;;;;;;2.22;1.58;;;;;;;;;;4137602;28;20087;-39
2021/11/16 10:04:51;;;;;;;1.85;1.20;;;;;;;;;;4162909;28;21761;-39
2021/11/16 10:06:55;;;;;;;2.08;1.27;;;;;;;;;;4158673;28;20155;-39
2021/11/16 10:08:57;;;;;;;1.50;1.30;;;;;;;;;;4160010;28;20840;-39
2021/11/16 10:10:59;;;;;;;2.30;1.60;;;;;;;;;;4140463;28;20057;-40
2021/11/16 10:13:07;;;;;;;3.40;1.52;;;;;;;;;;4150282;28;20061;-42
2021/11/16 10:15:09;;;;;;;3.00;1.45;;;;;;;;;;4162181;28;20057;-38
2021/11/16 10:17:10;;;;;;;1.83;1.30;;;;;;;;;;4161463;28;20119;-39
2021/11/16 10:19:12;;;;;;;2.65;1.60;;;;;;;;;;4165890;28;20052;-39
2021/11/16 10:21:15;;;;;;;2.05;1.30;;;;;;;;;;4160570;28;20087;-40
2021/11/16 10:23:30;;;;;;;4.03;1.60;;;;;;;;;;4161551;28;20115;-40
2021/11/16 10:25:32;;;;;;;1.90;1.33;;;;;;;;;;4165045;28;20106;-41
2021/11/16 10:27:35;;;;;;;1.70;1.40;;;;;;;;;;4161574;28;20056;-40
2021/11/16 10:29:37;;;;;;;2.28;1.00;;;;;;;;;;4162331;28;21123;-42
2021/11/16 10:31:38;;;;;;;2.28;1.17;;;;;;;;;;4157272;28;20507;-44
2021/11/16 10:33:46;;;;;;;2.80;1.23;;;;;;;;;;4154250;28;20183;-41
2021/11/16 10:35:59;;;;;;;2.25;1.20;;;;;;;;;;4154485;28;20052;-39
2021/11/16 10:38:04;;;;;;;2.40;1.52;;;;;;;;;;4160757;28;20081;-39
2021/11/16 10:40:10;;;;;;;1.85;1.20;;;;;;;;;;4158761;28;20428;-44
2021/11/16 10:42:17;;;;;;;1.85;1.20;;;;;;;;;;4150965;28;20065;-40
2021/11/16 10:44:22;;;;;;;2.17;1.40;;;;;;;;;;4148780;28;20084;-41
2021/11/16 10:46:27;;;;;;;2.83;1.75;;;;;;;;;;4152477;28;20107;-39
2021/11/16 10:48:28;;;;;;;2.30;1.67;;;;;;;;;;4158527;28;20057;-40
2021/11/16 10:50:31;;;;;;;1.65;1.10;;;;;;;;;;4155534;28;20045;-40
2021/11/16 10:52:33;;;;;;;2.72;1.65;;;;;;;;;;4160286;28;22068;-43
2021/11/16 10:54:34;;;;;;;2.47;1.33;;;;;;;;;;4160398;28;20106;-40
2021/11/16 10:56:36;;;;;;;3.25;1.50;;;;;;;;;;4141349;28;20179;-43
2021/11/16 10:58:40;;;;;;;2.78;1.55;;;;;;;;;;4158188;28;20103;-41
2021/11/16 11:00:55;;;;;;;1.77;1.35;;;;;;;;;;4158174;28;20593;-39
2021/11/16 11:03:21;;;;;;;2.25;1.55;;;;;;;;;;4157453;28;20061;-40
2021/11/16 11:05:34;;;;;;;2.65;1.92;;;;;;;;;;4161557;28;20124;-38
2021/11/16 11:07:37;;;;;;;3.10;1.65;;;;;;;;;;4164987;28;20167;-39
2021/11/16 11:09:38;;;;;;;2.08;1.23;;;;;;;;;;4160240;28;20124;-38
2021/11/16 11:11:58;;;;;;;2.92;2.08;;;;;;;;;;4158214;28;20048;-41
2021/11/16 11:14:12;;;;;;;1.92;1.55;;;;;;;;;;4158552;28;20053;-41
2021/11/16 11:16:15;;;;;;;2.33;1.63;;;;;;;;;;4161398;28;20049;-37
2021/11/16 11:18:34;;;;;;;2.10;1.63;;;;;;;;;;4156673;28;20390;-37
2021/11/16 11:20:39;;;;;;;2.53;1.80;;;;;;;;;;4164209;28;20134;-39
2021/11/16 11:22:43;;;;;;;2.47;1.80;;;;;;;;;;4157676;28;20115;-43
2021/11/16 11:25:02;;;;;;;5.13;2.10;;;;;;;;;;4141973;28;20062;-42
2021/11/16 11:29:45;;;;;;;4.90;2.20;;;;;;;;;;4158126;28;20053;-40
2021/11/16 11:31:48;;;;;;;;;;;;;;;;;;4158374;28;20053;-40
2021/11/16 11:33:49;;;;;;;3.45;1.70;;;;;;;;;;4160505;28;20388;-40
2021/11/16 11:35:51;;;;;;;3.50;1.90;;;;;;;;;;4155809;28;20167;-40
2021/11/16 11:37:57;;;;;;;3.33;1.60;;;;;;;;;;4137180;28;20054;-41
2021/11/16 11:40:08;;;;;;;1.70;1.27;;;;;;;;;;4164375;28;20057;-40
2021/11/16 11:42:13;;;;;;;2.50;2.00;;;;;;;;;;4161823;28;20627;-40
2021/11/16 11:44:17;;;;;;;2.13;1.80;;;;;;;;;;4152177;28;20053;-43
2021/11/16 11:46:44;;;;;;;2.85;1.65;;;;;;;;;;4156346;28;20049;-41
2021/11/16 11:48:46;;;;;;;2.47;1.77;;;;;;;;;;4163556;28;20107;-43
2021/11/16 11:50:51;;;;;;;4.00;1.92;;;;;;;;;;4166026;28;20052;-41
2021/11/16 11:52:53;;;;;;;2.70;1.70;;;;;;;;;;4145234;28;20748;-41
2021/11/16 11:54:54;;;;;;;2.75;1.88;;;;;;;;;;4166915;28;20366;-41
2021/11/16 11:56:55;;;;;;;2.55;1.85;;;;;;;;;;4145249;28;20401;-41
2021/11/16 11:58:58;;;;;;;3.70;2.00;;;;;;;;;;4161915;28;20241;-41
2021/11/16 12:01:06;;;;;;;2.05;1.70;;;;;;;;;;4137512;28;20053;-42
2021/11/16 12:03:09;;;;;;;3.17;1.90;;;;;;;;;;4161478;28;20920;-40
2021/11/16 12:05:10;;;;;;;2.05;1.60;;;;;;;;;;4168709;28;20053;-40
2021/11/16 12:07:11;;;;;;;3.63;1.33;;;;;;;;;;4166077;28;20433;-41
2021/11/16 12:09:13;;;;;;;3.22;1.73;;;;;;;;;;4163505;28;20169;-42
2021/11/16 12:11:15;;;;;;;2.28;1.60;;;;;;;;;;4166402;28;20049;-44
2021/11/16 12:13:21;;;;;;;2.85;1.67;;;;;;;;;;4138572;28;20096;-41
2021/11/16 12:15:29;;;;;;;1.58;1.23;;;;;;;;;;4147850;28;20156;-41
2021/11/16 12:17:35;;;;;;;2.70;1.67;;;;;;;;;;4166232;28;20496;-39
2021/11/16 12:19:44;;;;;;;2.95;1.77;;;;;;;;;;4168753;28;20072;-40
2021/11/16 12:21:47;;;;;;;4.15;1.85;;;;;;;;;;4170809;28;20146;-42
2021/11/16 12:23:54;;;;;;;2.47;1.77;;;;;;;;;;4167774;28;20076;-40
2021/11/16 12:26:05;;;;;;;1.63;1.52;;;;;;;;;;4152183;28;20302;-40
2021/11/16 12:28:36;;;;;;;2.67;1.70;;;;;;;;;;4166683;28;20061;-41
2021/11/16 12:30:39;;;;;;;3.55;1.85;;;;;;;;;;4137659;28;20053;-41
2021/11/16 12:32:52;;;;;;;1.70;1.40;;;;;;;;;;4151939;28;20337;-40
2021/11/16 12:35:01;;;;;;;4.00;1.70;;;;;;;;;;4163984;28;20057;-42
2021/11/16 12:37:03;;;;;;;2.00;1.80;;;;;;;;;;4164096;28;20130;-42